Time;durP1;ratioP1;P1;durP2;ratioP2;P2;SDS_P1;SDS_P2;PMS_P1;PMS_P2;Temp;Humidity;BMP_temperature;BMP_pressure;BME280_temperature;BME280_humidity;BME280_pressure;Samples;Min_cycle;Max_cycle;Signal;HPM_P1;HPM_P2
2021/08/06 00:00:16;;;;;;;;;;;;;;;14.96;80.89;96148.72;30001;961;1897;-61
2021/08/06 00:00:47;;;;;;;;;;;;;;;14.96;80.91;96151.44;30001;983;1880;-62
2021/08/06 00:01:19;;;;;;;;;;;;;;;14.96;80.80;96153.38;30001;983;1876;-69
2021/08/06 00:01:50;;;;;;;;;;;;;;;14.96;81.05;96147.91;30001;983;1880;-67
2021/08/06 00:02:21;;;;;;;;;;;;;;;14.93;81.03;96143.91;30001;983;1876;-68
2021/08/06 00:02:52;;;;;;;;;;;;;;;14.93;81.05;96154.03;30001;983;1880;-68
2021/08/06 00:03:23;;;;;;;;;;;;;;;14.93;81.13;96154.03;30001;983;1858;-68
2021/08/06 00:03:55;;;;;;;;;;;;;;;14.91;81.37;96154.38;30001;982;1876;-70
2021/08/06 00:04:26;;;;;;;;;;;;;;;14.91;81.39;96156.31;30001;982;1876;-64
2021/08/06 00:04:57;;;;;;;;;;;;;;;14.91;81.26;96156.31;30001;982;1880;-65
2021/08/06 00:05:29;;;;;;;;;;;;;;;14.91;80.95;96151.66;30001;982;1876;-64
2021/08/06 00:06:00;;;;;;;;;;;;;;;14.93;80.77;96154.03;30001;982;1881;-68
2021/08/06 00:06:32;;;;;;;;;;;;;;;14.94;80.64;96161.91;30001;982;1859;-67
2021/08/06 00:07:03;;;;;;;;;;;;;;;14.93;80.77;96154.84;30001;982;1876;-68
2021/08/06 00:07:37;;;;;;;;;;;;;;;14.95;80.55;96149.03;30001;983;1875;-69
2021/08/06 00:08:07;;;;;;;;;;;;;;;14.95;80.90;96157.25;30001;983;1880;-57
2021/08/06 00:08:38;;;;;;;;;;;;;;;14.95;80.82;96157.25;30001;983;1819;-65
2021/08/06 00:09:09;;;;;;;;;;;;;;;14.95;80.94;96157.25;30001;983;1880;-69
2021/08/06 00:09:41;;;;;;;;;;;;;;;14.94;80.74;96166.56;30001;983;1876;-67
2021/08/06 00:10:12;;;;;;;;;;;;;;;14.93;81.00;96164.97;30001;983;1880;-67
2021/08/06 00:10:42;;;;;;;;;;;;;;;14.93;80.91;96162.25;30001;983;1876;-67
2021/08/06 00:11:13;;;;;;;;;;;;;;;14.92;80.85;96163.38;30001;983;1863;-68
2021/08/06 00:11:44;;;;;;;;;;;;;;;14.92;80.78;96166.09;30001;982;1872;-68
2021/08/06 00:12:15;;;;;;;;;;;;;;;14.93;80.62;96162.25;30001;982;1863;-69
2021/08/06 00:12:45;;;;;;;;;;;;;;;14.93;80.33;96164.97;30001;982;1872;-68
2021/08/06 00:13:16;;;;;;;;;;;;;;;14.93;80.55;96165.78;30001;982;1880;-68
2021/08/06 00:13:47;;;;;;;;;;;;;;;14.93;80.56;96160.31;30001;982;1858;-63
2021/08/06 00:14:18;;;;;;;;;;;;;;;14.93;80.57;96160.31;30001;982;1876;-69
2021/08/06 00:14:49;;;;;;;;;;;;;;;14.92;80.50;96160.66;30001;983;1875;-68
2021/08/06 00:15:20;;;;;;;;;;;;;;;14.93;80.67;96157.56;30001;983;1880;-66
2021/08/06 00:15:51;;;;;;;;;;;;;;;14.93;80.64;96164.97;30001;983;1876;-67
2021/08/06 00:16:24;;;;;;;;;;;;;;;14.92;80.55;96152.44;30001;983;1880;-67
2021/08/06 00:16:55;;;;;;;;;;;;;;;14.92;80.53;96157.91;30002;983;1876;-64
2021/08/06 00:17:27;;;;;;;;;;;;;;;14.93;80.47;96156.78;30002;983;1880;-65
2021/08/06 00:17:59;;;;;;;;;;;;;;;14.92;80.50;96152.44;30002;983;1858;-68
2021/08/06 00:18:30;;;;;;;;;;;;;;;14.92;80.81;96152.44;30001;983;1876;-69
2021/08/06 00:19:01;;;;;;;;;;;;;;;14.91;80.87;96150.84;30002;982;1876;-67
2021/08/06 00:19:32;;;;;;;;;;;;;;;14.92;80.67;96153.25;30002;982;1881;-65
2021/08/06 00:20:05;;;;;;;;;;;;;;;14.92;80.71;96155.19;30002;982;1876;-67
2021/08/06 00:20:36;;;;;;;;;;;;;;;14.91;80.62;96154.38;30002;982;1880;-69
2021/08/06 00:21:08;;;;;;;;;;;;;;;14.92;80.66;96153.25;30002;982;1876;-67
2021/08/06 00:21:40;;;;;;;;;;;;;;;14.95;80.36;96146.31;30002;982;1881;-68
2021/08/06 00:22:11;;;;;;;;;;;;;;;14.95;80.12;96149.03;30002;982;1876;-68
2021/08/06 00:22:42;;;;;;;;;;;;;;;14.94;80.07;96150.19;30002;983;1880;-67
2021/08/06 00:23:13;;;;;;;;;;;;;;;14.93;80.30;96148.59;30002;983;1858;-70
2021/08/06 00:23:44;;;;;;;;;;;;;;;14.92;80.28;96152.44;30002;983;1876;-64
2021/08/06 00:24:16;;;;;;;;;;;;;;;14.92;80.33;96150.50;30002;983;1824;-68
2021/08/06 00:24:47;;;;;;;;;;;;;;;14.90;80.59;96138.38;30002;983;1880;-67
2021/08/06 00:25:19;;;;;;;;;;;;;;;14.88;80.61;96152.34;30002;983;1788;-69
2021/08/06 00:25:50;;;;;;;;;;;;;;;14.87;80.85;96145.28;30002;983;1880;-67
2021/08/06 00:26:21;;;;;;;;;;;;;;;14.86;80.62;96151.09;30002;983;1876;-68
2021/08/06 00:26:52;;;;;;;;;;;;;;;14.85;80.68;96146.78;30002;982;1880;-67
2021/08/06 00:27:23;;;;;;;;;;;;;;;14.84;80.73;96147.91;30002;982;1876;-69
2021/08/06 00:27:54;;;;;;;;;;;;;;;14.84;80.72;96151.44;30002;982;1880;-70
2021/08/06 00:28:25;;;;;;;;;;;;;;;14.85;80.63;96149.50;30002;982;1859;-66
2021/08/06 00:28:59;;;;;;;;;;;;;;;14.84;80.87;96150.63;30002;982;1809;-66
2021/08/06 00:29:30;;;;;;;;;;;;;;;14.85;80.86;96146.78;30002;983;1875;-72
2021/08/06 00:30:01;;;;;;;;;;;;;;;14.85;80.42;96146.78;30002;983;1880;-63
2021/08/06 00:30:32;;;;;;;;;;;;;;;14.85;80.50;96144.03;30002;983;1876;-71
2021/08/06 00:31:03;;;;;;;;;;;;;;;14.85;80.31;96146.78;30002;983;1880;-67
2021/08/06 00:31:33;;;;;;;;;;;;;;;14.84;80.42;96145.16;30002;983;1876;-67
2021/08/06 00:32:06;;;;;;;;;;;;;;;14.82;80.62;96144.72;30002;983;1880;-68
2021/08/06 00:32:37;;;;;;;;;;;;;;;14.81;80.68;96145.84;30002;983;1876;-69
2021/08/06 00:33:08;;;;;;;;;;;;;;;14.80;80.74;96139.59;30002;983;1880;-68
2021/08/06 00:33:39;;;;;;;;;;;;;;;14.88;80.30;96148.81;30002;983;1858;-67
2021/08/06 00:34:10;;;;;;;;;;;;;;;14.91;80.10;96134.47;30002;982;1876;-67
2021/08/06 00:34:44;;;;;;;;;;;;;;;14.90;80.14;96132.91;30002;982;1876;-67
2021/08/06 00:35:15;;;;;;;;;;;;;;;14.87;80.59;96144.50;30002;982;1880;-70
2021/08/06 00:35:45;;;;;;;;;;;;;;;14.85;80.23;96138.56;30002;982;1876;-68
2021/08/06 00:36:16;;;;;;;;;;;;;;;14.82;80.98;96136.50;30002;982;1881;-62
2021/08/06 00:36:47;;;;;;;;;;;;;;;14.80;80.86;96141.53;30002;983;1875;-64
2021/08/06 00:37:18;;;;;;;;;;;;;;;14.78;81.04;96144.59;30002;983;1880;-70
2021/08/06 00:37:49;;;;;;;;;;;;;;;14.79;80.81;96135.25;30002;983;1875;-66
2021/08/06 00:38:20;;;;;;;;;;;;;;;14.81;80.66;96137.66;30002;983;1880;-64
2021/08/06 00:38:52;;;;;;;;;;;;;;;14.80;80.81;96139.59;30002;983;1858;-67
2021/08/06 00:39:23;;;;;;;;;;;;;;;14.78;80.85;96141.06;30002;983;1875;-70
2021/08/06 00:39:54;;;;;;;;;;;;;;;14.75;80.55;96135.13;30002;983;1876;-64
2021/08/06 00:40:25;;;;;;;;;;;;;;;14.74;80.77;96138.19;30002;983;1880;-68
2021/08/06 00:40:56;;;;;;;;;;;;;;;14.75;80.78;96139.78;30002;983;1876;-63
2021/08/06 00:41:27;;;;;;;;;;;;;;;14.72;80.94;96138.53;30002;983;1880;-70
2021/08/06 00:41:58;;;;;;;;;;;;;;;14.72;80.82;96135.81;30002;982;1876;-69
2021/08/06 00:42:29;;;;;;;;;;;;;;;14.74;80.87;96144.47;30002;982;1880;-67
2021/08/06 00:43:00;;;;;;;;;;;;;;;14.73;80.57;96140.12;30002;982;1876;-69
2021/08/06 00:43:31;;;;;;;;;;;;;;;14.72;80.75;96133.06;30002;982;1881;-67
2021/08/06 00:44:03;;;;;;;;;;;;;;;14.70;80.89;96135.34;30002;982;1859;-67
2021/08/06 00:44:34;;;;;;;;;;;;;;;14.68;81.23;96132.16;30002;986;1867;-66
2021/08/06 00:45:06;;;;;;;;;;;;;;;14.68;81.25;96132.16;30002;983;1880;-67
2021/08/06 00:45:37;;;;;;;;;;;;;;;14.66;81.33;96139.06;30002;983;1875;-68
2021/08/06 00:46:08;;;;;;;;;;;;;;;14.64;81.55;96136.69;30002;983;1880;-68
2021/08/06 00:46:40;;;;;;;;;;;;;;;14.63;81.29;96135.09;30002;983;1876;-63
2021/08/06 00:47:11;;;;;;;;;;;;;;;14.63;81.31;96137.81;30002;983;1880;-66
2021/08/06 00:47:42;;;;;;;;;;;;;;;14.65;81.34;96138.28;30002;983;1876;-70
2021/08/06 00:48:17;;;;;;;;;;;;;;;14.65;81.13;96137.47;30002;983;1790;-69
2021/08/06 00:48:48;;;;;;;;;;;;;;;14.63;81.30;96129.63;30002;983;1876;-68
2021/08/06 00:49:19;;;;;;;;;;;;;;;14.65;81.05;96124.62;30002;982;1863;-69
2021/08/06 00:49:51;;;;;;;;;;;;;;;14.64;80.97;96125.75;30002;982;1872;-64
2021/08/06 00:50:24;;;;;;;;;;;;;;;14.62;81.12;96136.22;30002;982;1880;-63
2021/08/06 00:50:56;;;;;;;;;;;;;;;14.64;81.27;96128.50;30002;982;1876;-68
2021/08/06 00:51:28;;;;;;;;;;;;;;;14.63;81.14;96126.09;30002;982;1881;-67
2021/08/06 00:51:59;;;;;;;;;;;;;;;14.62;81.30;96128.03;30002;983;1875;-67
2021/08/06 00:52:30;;;;;;;;;;;;;;;14.62;81.14;96133.50;30002;983;1880;-65
2021/08/06 00:53:01;;;;;;;;;;;;;;;14.60;81.13;96130.28;30002;983;1858;-68
2021/08/06 00:53:32;;;;;;;;;;;;;;;14.60;81.22;96124.03;30002;983;1876;-69
2021/08/06 00:54:05;;;;;;;;;;;;;;;14.61;81.39;96131.91;30002;983;1876;-62
2021/08/06 00:54:36;;;;;;;;;;;;;;;14.62;81.29;96132.69;30002;983;1880;-70
2021/08/06 00:55:08;;;;;;;;;;;;;;;14.61;81.14;96126.44;30002;983;1876;-69
2021/08/06 00:55:39;;;;;;;;;;;;;;;14.61;81.11;96131.91;30002;983;1880;-62
2021/08/06 00:56:10;;;;;;;;;;;;;;;14.62;81.04;96130.75;30002;982;1876;-70
2021/08/06 00:56:41;;;;;;;;;;;;;;;14.63;81.05;96129.63;30002;982;1880;-68
2021/08/06 00:57:13;;;;;;;;;;;;;;;14.62;81.13;96128.03;30002;982;1876;-61
2021/08/06 00:57:44;;;;;;;;;;;;;;;14.61;81.10;96131.91;30002;982;1880;-67
2021/08/06 00:58:15;;;;;;;;;;;;;;;14.64;81.10;96128.50;30002;982;1859;-65
2021/08/06 00:58:46;;;;;;;;;;;;;;;14.64;80.72;96128.50;30002;982;1876;-69
2021/08/06 00:59:17;;;;;;;;;;;;;;;14.61;80.99;96126.44;30002;983;1875;-67
2021/08/06 00:59:48;;;;;;;;;;;;;;;14.66;80.69;96134.41;30002;983;1880;-64
2021/08/06 01:00:19;;;;;;;;;;;;;;;14.66;80.75;96130.88;30002;963;1804;-69
2021/08/06 01:00:50;;;;;;;;;;;;;;;14.64;80.72;96128.50;30002;983;1880;-72
2021/08/06 01:01:23;;;;;;;;;;;;;;;14.63;80.87;96132.34;30002;983;1876;-67
2021/08/06 01:02:03;;;;;;;;;;;;;;;14.63;81.01;96128.84;30002;983;1880;-69
2021/08/06 01:02:43;;;;;;;;;;;;;;;14.60;81.06;96135.75;30002;983;1876;-69
2021/08/06 01:03:23;;;;;;;;;;;;;;;14.61;80.87;96129.16;30002;983;1880;-65
2021/08/06 01:03:59;;;;;;;;;;;;;;;14.63;80.91;96128.84;30002;982;1858;-65
2021/08/06 01:04:51;;;;;;;;;;;;;;;14.62;80.95;96122.56;30002;982;1876;-71
2021/08/06 01:05:27;;;;;;;;;;;;;;;14.63;80.65;96129.63;30002;982;1850;-68
2021/08/06 01:06:10;;;;;;;;;;;;;;;14.61;80.66;96120.97;30002;982;1876;-67
2021/08/06 01:06:47;;;;;;;;;;;;;;;14.62;80.62;96119.03;30002;982;1876;-69
2021/08/06 01:07:29;;;;;;;;;;;;;;;14.62;80.65;96119.03;30002;983;1880;-70
2021/08/06 01:08:10;;;;;;;;;;;;;;;14.58;80.70;96115.38;30001;983;1875;-69
2021/08/06 01:08:46;;;;;;;;;;;;;;;14.56;80.84;96118.44;30001;983;1880;-68
2021/08/06 01:09:21;;;;;;;;;;;;;;;14.57;80.70;96117.31;30001;983;1876;-68
2021/08/06 01:10:01;;;;;;;;;;;;;;;14.56;80.85;96117.66;30001;983;1863;-69
2021/08/06 01:10:36;;;;;;;;;;;;;;;14.56;80.85;96112.19;30002;983;1854;-69
2021/08/06 01:11:08;;;;;;;;;;;;;;;14.61;80.39;96117.44;30002;982;1832;-64
2021/08/06 01:11:42;;;;;;;;;;;;;;;14.60;80.60;96124.84;30002;982;1782;-67
2021/08/06 01:12:16;;;;;;;;;;;;;;;14.62;80.40;96122.56;30001;982;1880;-66
2021/08/06 01:12:50;;;;;;;;;;;;;;;14.61;80.52;96115.50;30001;982;1877;-68
2021/08/06 01:13:26;;;;;;;;;;;;;;;14.59;80.64;96120.50;30001;982;1880;-68
2021/08/06 01:13:58;;;;;;;;;;;;;;;14.56;81.01;96121.19;30001;982;1877;-69
2021/08/06 01:14:29;;;;;;;;;;;;;;;14.53;80.97;96118.34;30001;983;1880;-69
2021/08/06 01:15:01;;;;;;;;;;;;;;;14.53;80.97;96124.62;30001;983;1875;-68
2021/08/06 01:15:34;;;;;;;;;;;;;;;14.52;80.86;96122.22;30001;983;1862;-67
2021/08/06 01:16:06;;;;;;;;;;;;;;;14.51;81.12;96123.34;30001;983;1871;-69
2021/08/06 01:16:38;;;;;;;;;;;;;;;14.52;80.87;96128.47;30001;983;1880;-71
2021/08/06 01:17:11;;;;;;;;;;;;;;;14.54;80.62;96131.66;30001;983;1858;-64
2021/08/06 01:17:44;;;;;;;;;;;;;;;14.54;80.57;96126.22;30001;983;1876;-68
2021/08/06 01:18:16;;;;;;;;;;;;;;;14.54;80.75;96128.94;30001;983;1876;-61
2021/08/06 01:18:52;;;;;;;;;;;;;;;14.54;80.64;96128.94;30001;982;1881;-63
2021/08/06 01:19:25;;;;;;;;;;;;;;;14.53;80.58;96130.06;30001;982;1876;-65
2021/08/06 01:20:07;;;;;;;;;;;;;;;14.53;80.69;96132.00;30001;982;1880;-66
2021/08/06 01:20:40;;;;;;;;;;;;;;;14.51;81.12;96126.09;30001;982;1876;-68
2021/08/06 01:21:14;;;;;;;;;;;;;;;14.47;81.32;96125.94;30001;982;1880;-62
2021/08/06 01:21:49;;;;;;;;;;;;;;;14.46;81.57;96127.09;30001;982;1876;-68
2021/08/06 01:22:40;;;;;;;;;;;;;;;14.43;81.29;96125.03;30001;983;1862;-63
2021/08/06 01:23:42;;;;;;;;;;;;;;;14.44;81.24;96125.81;30002;983;1775;-70
2021/08/06 01:24:14;;;;;;;;;;;;;;;14.43;81.12;96125.03;30001;983;1876;-67
2021/08/06 01:24:50;;;;;;;;;;;;;;;14.43;81.06;96118.78;30001;983;1858;-69
2021/08/06 01:25:44;;;;;;;;;;;;;;;14.42;81.08;96117.97;30001;983;1876;-69
2021/08/06 01:26:16;;;;;;;;;;;;;;;14.43;81.10;96119.56;30001;982;1876;-68
2021/08/06 01:26:48;;;;;;;;;;;;;;;14.45;80.95;96119.22;30001;982;1845;-67
2021/08/06 01:27:20;;;;;;;;;;;;;;;14.44;80.95;96125.81;30001;982;1854;-65
2021/08/06 01:27:51;;;;;;;;;;;;;;;14.44;80.98;96126.63;30001;982;1880;-72
2021/08/06 01:28:24;;;;;;;;;;;;;;;14.48;80.79;96122.09;30001;982;1876;-66
2021/08/06 01:28:56;;;;;;;;;;;;;;;14.48;80.70;96121.28;30001;983;1880;-69
2021/08/06 01:29:28;;;;;;;;;;;;;;;14.52;80.43;96123.00;30001;983;1875;-68
2021/08/06 01:29:59;;;;;;;;;;;;;;;14.53;80.44;96119.16;30001;983;1880;-70
2021/08/06 01:30:29;;;;;;;;;;;;;;;14.60;80.10;96119.38;30001;983;1875;-69
2021/08/06 01:31:00;;;;;;;;;;;;;;;14.61;79.98;96120.97;30001;986;1880;-69
2021/08/06 01:31:31;;;;;;;;;;;;;;;14.60;80.16;96119.38;30001;983;1876;-63
2021/08/06 01:32:03;;;;;;;;;;;;;;;14.58;80.12;96118.91;30001;983;1880;-66
2021/08/06 01:32:34;;;;;;;;;;;;;;;14.57;80.03;96120.06;30001;983;1858;-67
2021/08/06 01:33:05;;;;;;;;;;;;;;;14.56;80.16;96121.19;30001;983;1876;-66
2021/08/06 01:33:36;;;;;;;;;;;;;;;14.54;80.18;96112.56;30001;982;1876;-67
2021/08/06 01:34:07;;;;;;;;;;;;;;;14.55;80.26;96116.09;30001;982;1880;-69
2021/08/06 01:34:38;;;;;;;;;;;;;;;14.54;80.29;96115.28;30001;982;1876;-68
2021/08/06 01:35:10;;;;;;;;;;;;;;;14.54;80.23;96120.75;30001;982;1880;-68
2021/08/06 01:35:44;;;;;;;;;;;;;;;14.53;80.24;96112.91;30001;982;1876;-67
2021/08/06 01:36:15;;;;;;;;;;;;;;;14.53;80.23;96118.34;30001;983;1880;-65
2021/08/06 01:36:46;;;;;;;;;;;;;;;14.54;80.34;96120.75;30001;983;1858;-70
2021/08/06 01:37:17;;;;;;;;;;;;;;;14.54;80.21;96114.50;30001;983;1876;-67
2021/08/06 01:37:48;;;;;;;;;;;;;;;14.53;80.41;96113.69;30001;983;1876;-67
2021/08/06 01:38:19;;;;;;;;;;;;;;;14.56;80.16;96112.19;30001;983;1880;-71
2021/08/06 01:38:51;;;;;;;;;;;;;;;14.55;80.12;96114.16;30001;983;1876;-67
2021/08/06 01:39:22;;;;;;;;;;;;;;;14.55;80.14;96116.09;30001;983;1863;-69
2021/08/06 01:39:53;;;;;;;;;;;;;;;14.56;79.89;96114.94;30001;983;1854;-71
2021/08/06 01:40:25;;;;;;;;;;;;;;;14.56;80.01;96110.25;30001;983;1880;-69
2021/08/06 01:41:14;;;;;;;;;;;;;;;14.56;80.24;96117.66;30001;983;1858;-69
2021/08/06 01:41:50;;;;;;;;;;;;;;;14.53;80.17;96113.69;30001;982;1867;-71
2021/08/06 01:42:29;;;;;;;;;;;;;;;14.54;80.10;96109.84;30001;982;1859;-67
2021/08/06 01:43:12;;;;;;;;;;;;;;;14.52;80.15;96114.81;30001;982;1876;-69
2021/08/06 01:43:52;;;;;;;;;;;;;;;14.53;80.11;96115.63;30001;983;1875;-66
2021/08/06 01:44:28;;;;;;;;;;;;;;;14.52;80.14;96112.09;30001;983;1880;-69
2021/08/06 01:44:59;;;;;;;;;;;;;;;14.53;79.92;96105.50;30001;983;1875;-69
2021/08/06 01:45:33;;;;;;;;;;;;;;;14.54;79.98;96112.56;30001;983;1880;-69
2021/08/06 01:46:09;;;;;;;;;;;;;;;14.53;80.17;96110.16;30001;983;1876;-69
2021/08/06 01:46:45;;;;;;;;;;;;;;;14.51;80.19;96110.50;30001;983;1880;-70
2021/08/06 01:47:25;;;;;;;;;;;;;;;14.55;79.89;96105.97;30001;983;1858;-63
2021/08/06 01:47:56;;;;;;;;;;;;;;;14.55;79.83;96114.16;30002;983;1780;-68
2021/08/06 01:48:30;;;;;;;;;;;;;;;14.55;79.85;96110.62;30001;983;1876;-68
2021/08/06 01:49:08;;;;;;;;;;;;;;;14.61;79.61;96110.06;30001;982;1863;-73
2021/08/06 01:49:47;;;;;;;;;;;;;;;14.64;79.49;96112.13;30001;982;1872;-68
2021/08/06 01:50:29;;;;;;;;;;;;;;;14.62;79.23;96114.37;30001;982;1880;-67
2021/08/06 01:51:00;;;;;;;;;;;;;;;14.63;79.43;96107.00;30001;982;1876;-69
2021/08/06 01:51:34;;;;;;;;;;;;;;;14.60;79.32;96110.38;30001;983;1880;-69
2021/08/06 01:52:09;;;;;;;;;;;;;;;14.56;79.93;96107.53;30001;983;1875;-69
2021/08/06 01:53:09;;;;;;;;;;;;;;;14.55;79.85;96116.88;30001;983;1880;-68
2021/08/06 01:53:44;;;;;;;;;;;;;;;14.55;79.66;96111.44;30001;983;1854;-68
2021/08/06 01:54:16;;;;;;;;;;;;;;;14.57;79.61;96106.41;30001;983;1876;-68
2021/08/06 01:54:48;;;;;;;;;;;;;;;14.61;79.50;96107.31;30001;983;1876;-68
2021/08/06 01:55:21;;;;;;;;;;;;;;;14.63;79.60;96107.00;30001;983;1880;-67
2021/08/06 01:55:56;;;;;;;;;;;;;;;14.64;79.37;96108.59;30001;983;1876;-69
2021/08/06 01:56:28;;;;;;;;;;;;;;;14.61;79.32;96112.78;30001;982;1880;-68
2021/08/06 01:57:00;;;;;;;;;;;;;;;14.60;79.56;96110.38;30001;982;1876;-68
2021/08/06 01:57:32;;;;;;;;;;;;;;;14.60;79.60;96108.47;30001;982;1863;-67
2021/08/06 01:58:05;;;;;;;;;;;;;;;14.60;79.49;96105.72;30001;982;1872;-70
2021/08/06 01:58:36;;;;;;;;;;;;;;;14.60;79.62;96108.47;30001;982;1881;-68
2021/08/06 01:59:07;;;;;;;;;;;;;;;14.59;79.59;96111.53;30001;983;1876;-69
2021/08/06 01:59:39;;;;;;;;;;;;;;;14.58;79.68;96113.47;30001;983;1880;-68
2021/08/06 02:00:10;;;;;;;;;;;;;;;14.59;79.56;96106.87;30001;983;1875;-70
2021/08/06 02:00:41;;;;;;;;;;;;;;;14.60;79.37;96113.13;30001;983;1862;-67
2021/08/06 02:01:13;;;;;;;;;;;;;;;14.58;79.40;96105.25;30001;983;1871;-65
2021/08/06 02:01:44;;;;;;;;;;;;;;;14.58;79.54;96108.00;30001;983;1880;-71
2021/08/06 02:02:15;;;;;;;;;;;;;;;14.59;79.68;96106.06;30001;983;1876;-68
2021/08/06 02:02:47;;;;;;;;;;;;;;;14.56;79.21;96107.53;30001;983;1863;-63
2021/08/06 02:03:18;;;;;;;;;;;;;;;14.53;79.30;96105.50;30001;982;1872;-69
2021/08/06 02:03:49;;;;;;;;;;;;;;;14.54;79.28;96107.09;30001;982;1880;-69
2021/08/06 02:04:20;;;;;;;;;;;;;;;14.53;79.45;96099.25;30001;982;1859;-69
2021/08/06 02:04:54;;;;;;;;;;;;;;;14.52;79.48;96105.84;30001;982;1876;-68
2021/08/06 02:05:27;;;;;;;;;;;;;;;14.52;79.55;96095.72;30001;982;1792;-68
2021/08/06 02:05:57;;;;;;;;;;;;;;;14.52;79.70;96105.84;30001;982;1881;-69
2021/08/06 02:06:29;;;;;;;;;;;;;;;14.52;79.71;96106.63;30001;983;1875;-70
2021/08/06 02:07:00;;;;;;;;;;;;;;;14.52;79.66;96103.91;30001;983;1880;-67
2021/08/06 02:07:31;;;;;;;;;;;;;;;14.52;80.07;96103.91;30001;983;1875;-69
2021/08/06 02:08:02;;;;;;;;;;;;;;;14.52;79.80;96106.63;30001;983;1880;-69
2021/08/06 02:08:35;;;;;;;;;;;;;;;14.54;79.65;96104.38;30001;983;1876;-64
2021/08/06 02:09:05;;;;;;;;;;;;;;;14.54;79.35;96104.38;30001;983;1880;-69
2021/08/06 02:09:37;;;;;;;;;;;;;;;14.55;79.37;96105.16;30001;983;1858;-68
2021/08/06 02:10:10;;;;;;;;;;;;;;;14.55;79.49;96099.72;30001;983;1876;-68
2021/08/06 02:10:41;;;;;;;;;;;;;;;14.54;79.67;96098.91;30001;982;1876;-67
2021/08/06 02:11:15;;;;;;;;;;;;;;;14.54;79.77;96098.91;30001;982;1880;-68
2021/08/06 02:11:48;;;;;;;;;;;;;;;14.55;79.94;96100.50;30001;982;1858;-68
2021/08/06 02:12:19;;;;;;;;;;;;;;;14.55;79.36;96096.97;30001;982;1876;-62
2021/08/06 02:12:51;;;;;;;;;;;;;;;14.54;79.31;96096.19;30001;982;1876;-70
2021/08/06 02:13:22;;;;;;;;;;;;;;;14.55;79.38;96100.50;30001;962;1901;-70
2021/08/06 02:13:53;;;;;;;;;;;;;;;14.56;79.43;96102.06;30001;983;1875;-66
2021/08/06 02:14:24;;;;;;;;;;;;;;;14.57;79.00;96102.88;30001;983;1862;-67
2021/08/06 02:14:54;;;;;;;;;;;;;;;14.56;79.17;96102.06;30001;983;1871;-66
2021/08/06 02:15:26;;;;;;;;;;;;;;;14.56;79.37;96095.81;30001;983;1880;-66
2021/08/06 02:15:57;;;;;;;;;;;;;;;14.57;79.04;96102.88;30001;983;1876;-62
2021/08/06 02:16:28;;;;;;;;;;;;;;;14.56;79.27;96102.06;30001;983;1880;-67
2021/08/06 02:16:59;;;;;;;;;;;;;;;14.61;79.13;96090.16;30001;983;1858;-69
2021/08/06 02:17:30;;;;;;;;;;;;;;;14.61;78.97;96098.34;30001;983;1876;-68
2021/08/06 02:18:01;;;;;;;;;;;;;;;14.63;78.68;96090.59;30001;982;1876;-69
2021/08/06 02:18:33;;;;;;;;;;;;;;;14.63;78.57;96090.59;30001;982;1880;-69
2021/08/06 02:19:05;;;;;;;;;;;;;;;14.64;78.67;96092.19;30001;982;1876;-68
2021/08/06 02:19:37;;;;;;;;;;;;;;;14.63;78.67;96082.41;30001;982;1863;-68
2021/08/06 02:20:09;;;;;;;;;;;;;;;14.62;78.84;96087.06;30001;982;1872;-68
2021/08/06 02:20:41;;;;;;;;;;;;;;;14.62;78.85;96084.34;30001;982;1881;-68
2021/08/06 02:21:13;;;;;;;;;;;;;;;14.63;78.75;96102.31;30001;982;1876;-69
2021/08/06 02:21:46;;;;;;;;;;;;;;;14.63;78.65;96091.41;30001;983;1880;-70
2021/08/06 02:22:18;;;;;;;;;;;;;;;14.66;78.50;96089.94;30001;983;1875;-68
2021/08/06 02:22:50;;;;;;;;;;;;;;;14.65;78.21;96085.59;30001;983;1880;-67
2021/08/06 02:23:22;;;;;;;;;;;;;;;14.65;78.63;96093.81;30001;983;1876;-68
2021/08/06 02:23:56;;;;;;;;;;;;;;;14.64;78.65;96093.00;30001;983;1880;-64
2021/08/06 02:24:28;;;;;;;;;;;;;;;14.64;78.87;96093.00;30001;983;1858;-65
2021/08/06 02:25:00;;;;;;;;;;;;;;;14.65;78.70;96088.34;30001;983;1876;-66
2021/08/06 02:25:32;;;;;;;;;;;;;;;14.64;78.84;96087.53;30001;983;1876;-67
2021/08/06 02:26:04;;;;;;;;;;;;;;;14.65;78.89;96085.59;30001;982;1880;-68
2021/08/06 02:26:36;;;;;;;;;;;;;;;14.65;78.74;96088.34;30001;982;1876;-66
2021/08/06 02:27:08;;;;;;;;;;;;;;;14.65;78.55;96091.87;30001;982;1881;-66
2021/08/06 02:27:40;;;;;;;;;;;;;;;14.65;78.76;96089.13;30001;982;1876;-66
2021/08/06 02:28:11;;;;;;;;;;;;;;;14.66;78.77;96089.94;30001;982;1881;-67
2021/08/06 02:28:43;;;;;;;;;;;;;;;14.65;78.81;96089.13;30001;982;1877;-63
2021/08/06 02:29:16;;;;;;;;;;;;;;;14.67;78.50;96092.31;30001;983;1880;-68
2021/08/06 02:29:49;;;;;;;;;;;;;;;14.67;78.18;96086.88;30001;983;1858;-69
2021/08/06 02:30:21;;;;;;;;;;;;;;;14.69;78.19;96090.06;30001;983;1875;-68
2021/08/06 02:30:54;;;;;;;;;;;;;;;14.68;78.35;96082.19;30001;983;1876;-66
2021/08/06 02:31:25;;;;;;;;;;;;;;;14.68;78.30;96084.94;30001;983;1880;-67
2021/08/06 02:31:58;;;;;;;;;;;;;;;14.68;78.28;96085.72;30001;983;1876;-66
2021/08/06 02:32:30;;;;;;;;;;;;;;;14.68;78.24;96083.00;30001;983;1880;-64
2021/08/06 02:33:01;;;;;;;;;;;;;;;14.71;78.31;96093.25;30001;983;1876;-70
2021/08/06 02:33:32;;;;;;;;;;;;;;;14.71;77.50;96089.72;30001;982;1880;-67
2021/08/06 02:34:03;;;;;;;;;;;;;;;14.70;77.62;96080.72;30001;982;1876;-67
2021/08/06 02:34:34;;;;;;;;;;;;;;;14.68;77.39;96088.47;30001;982;1880;-67
2021/08/06 02:35:06;;;;;;;;;;;;;;;14.69;77.75;96086.53;30001;982;1859;-69
2021/08/06 02:35:37;;;;;;;;;;;;;;;14.72;77.70;96083.13;30001;982;1876;-70
2021/08/06 02:36:08;;;;;;;;;;;;;;;14.72;77.57;96092.13;30001;983;1876;-68
2021/08/06 02:36:39;;;;;;;;;;;;;;;14.74;77.26;96084.37;30001;983;1880;-69
2021/08/06 02:37:10;;;;;;;;;;;;;;;14.78;77.06;96080.97;30001;983;1876;-67
2021/08/06 02:37:44;;;;;;;;;;;;;;;14.81;76.87;96086.56;30001;983;1880;-68
2021/08/06 02:38:21;;;;;;;;;;;;;;;14.82;76.95;96076.44;30001;983;1876;-67
2021/08/06 02:38:56;;;;;;;;;;;;;;;14.85;76.74;96083.94;30001;983;1880;-68
2021/08/06 02:39:29;;;;;;;;;;;;;;;14.82;76.96;96084.63;30001;983;1876;-69
2021/08/06 02:40:00;;;;;;;;;;;;;;;14.81;76.93;96085.75;30001;983;1863;-68
2021/08/06 02:40:31;;;;;;;;;;;;;;;14.79;77.10;96077.09;30001;983;1872;-79
2021/08/06 02:41:02;;;;;;;;;;;;;;;14.79;77.14;96077.91;30001;962;1900;-69
2021/08/06 02:41:34;;;;;;;;;;;;;;;14.82;77.10;96079.16;30001;982;1876;-68
2021/08/06 02:42:05;;;;;;;;;;;;;;;14.87;76.56;96081.69;30001;982;1880;-70
2021/08/06 02:42:37;;;;;;;;;;;;;;;14.91;76.28;96079.84;30001;982;1876;-68
2021/08/06 02:43:08;;;;;;;;;;;;;;;14.94;76.13;96074.50;30001;982;1880;-68
2021/08/06 02:43:40;;;;;;;;;;;;;;;14.93;76.48;96074.84;30001;983;1876;-69
2021/08/06 02:44:11;;;;;;;;;;;;;;;14.92;76.49;96071.31;30001;983;1880;-70
2021/08/06 02:44:42;;;;;;;;;;;;;;;14.93;76.40;96077.56;30001;983;1875;-71
2021/08/06 02:45:13;;;;;;;;;;;;;;;14.90;76.22;96073.56;30001;983;1862;-69
2021/08/06 02:45:48;;;;;;;;;;;;;;;14.92;76.28;96070.50;30001;983;1871;-70
2021/08/06 02:46:19;;;;;;;;;;;;;;;14.92;76.37;96078.69;30001;983;1880;-69
2021/08/06 02:46:50;;;;;;;;;;;;;;;14.91;76.27;96071.62;30001;983;1876;-68
2021/08/06 02:47:21;;;;;;;;;;;;;;;14.90;76.26;96072.81;30001;987;1880;-70
2021/08/06 02:47:52;;;;;;;;;;;;;;;14.91;76.41;96068.91;30001;983;1876;-68
2021/08/06 02:48:24;;;;;;;;;;;;;;;14.89;76.50;96068.47;30001;982;1881;-68
2021/08/06 02:48:55;;;;;;;;;;;;;;;14.88;76.61;96069.63;30001;982;1811;-68
2021/08/06 02:49:31;;;;;;;;;;;;;;;14.89;76.60;96068.47;30001;982;1880;-68
2021/08/06 02:50:02;;;;;;;;;;;;;;;14.94;76.24;96068.22;30001;982;1876;-68
2021/08/06 02:50:33;;;;;;;;;;;;;;;14.93;76.30;96066.63;30001;982;1863;-70
2021/08/06 02:51:04;;;;;;;;;;;;;;;14.95;76.30;96069.81;30001;983;1871;-67
2021/08/06 02:51:35;;;;;;;;;;;;;;;14.93;76.40;96067.44;30001;983;1880;-70
2021/08/06 02:52:07;;;;;;;;;;;;;;;14.92;76.62;96068.56;30001;983;1876;-71
2021/08/06 02:52:38;;;;;;;;;;;;;;;14.91;76.14;96068.91;30001;983;1880;-72
2021/08/06 02:53:09;;;;;;;;;;;;;;;14.89;76.26;96066.56;30001;983;1876;-67
2021/08/06 02:53:40;;;;;;;;;;;;;;;14.89;76.34;96068.47;30001;983;1880;-70
2021/08/06 02:54:11;;;;;;;;;;;;;;;14.91;76.21;96074.38;30001;983;1858;-69
2021/08/06 02:54:42;;;;;;;;;;;;;;;14.91;75.91;96061.50;30001;983;1876;-68